Time;durP1;ratioP1;P1;durP2;ratioP2;P2;SDS_P1;SDS_P2;PMS_P1;PMS_P2;Temp;Humidity;BMP_temperature;BMP_pressure;BME280_temperature;BME280_humidity;BME280_pressure;Samples;Min_cycle;Max_cycle;Signal;HPM_P1;HPM_P2
2022/08/27 00:02:09;;;;;;;4.45;1.10;;;;;;;;;;5029193;28;20033;-47
2022/08/27 00:04:36;;;;;;;8.57;1.63;;;;;;;;;;5031231;28;20048;-45
2022/08/27 00:07:04;;;;;;;6.15;1.63;;;;;;;;;;5023985;28;20049;-45
2022/08/27 00:09:30;;;;;;;4.45;1.20;;;;;;;;;;5031025;28;20040;-47
2022/08/27 00:11:58;;;;;;;4.70;1.30;;;;;;;;;;5037373;28;20514;-44
2022/08/27 00:14:26;;;;;;;5.35;1.40;;;;;;;;;;5031934;28;20045;-44
2022/08/27 00:16:52;;;;;;;4.93;1.20;;;;;;;;;;5022627;28;20095;-43
2022/08/27 00:19:19;;;;;;;5.15;1.65;;;;;;;;;;5020032;28;20076;-42
2022/08/27 00:21:46;;;;;;;4.97;1.52;;;;;;;;;;5010351;28;20052;-43
2022/08/27 00:24:12;;;;;;;4.25;1.25;;;;;;;;;;5029818;28;20513;-46
2022/08/27 00:26:39;;;;;;;4.40;1.25;;;;;;;;;;5029471;28;20040;-44
2022/08/27 00:29:08;;;;;;;4.67;1.73;;;;;;;;;;5011418;28;20074;-45
2022/08/27 00:31:34;;;;;;;5.82;1.23;;;;;;;;;;5007739;28;20632;-44
2022/08/27 00:34:01;;;;;;;5.40;1.38;;;;;;;;;;5031345;28;20511;-43
2022/08/27 00:36:28;;;;;;;6.03;1.60;;;;;;;;;;5039832;28;20053;-44
2022/08/27 00:38:54;;;;;;;5.63;1.20;;;;;;;;;;5029893;28;20048;-43
2022/08/27 00:41:21;;;;;;;5.37;1.30;;;;;;;;;;5034922;28;20095;-43
2022/08/27 00:43:49;;;;;;;5.28;1.40;;;;;;;;;;5033451;28;20052;-45
2022/08/27 00:46:21;;;;;;;4.50;1.65;;;;;;;;;;5029979;28;20447;-44
2022/08/27 00:48:48;;;;;;;5.30;1.48;;;;;;;;;;5027177;28;20111;-43
2022/08/27 00:51:15;;;;;;;5.25;1.55;;;;;;;;;;5020375;28;20094;-44
2022/08/27 00:53:42;;;;;;;6.00;1.27;;;;;;;;;;5028972;28;20037;-44
2022/08/27 00:56:10;;;;;;;4.38;1.30;;;;;;;;;;5017519;28;20032;-42
2022/08/27 00:58:38;;;;;;;4.88;1.40;;;;;;;;;;5020569;28;20044;-43
2022/08/27 01:01:06;;;;;;;5.18;1.50;;;;;;;;;;5034609;28;20128;-44
2022/08/27 01:03:34;;;;;;;6.25;1.65;;;;;;;;;;5027308;28;20053;-44
2022/08/27 01:06:01;;;;;;;4.67;1.47;;;;;;;;;;5033074;28;20037;-44
2022/08/27 01:08:30;;;;;;;5.63;1.70;;;;;;;;;;5024869;28;20033;-43
2022/08/27 01:10:58;;;;;;;4.80;1.63;;;;;;;;;;5031079;28;20037;-42
2022/08/27 01:13:25;;;;;;;6.32;1.90;;;;;;;;;;5002092;28;20052;-44
2022/08/27 01:15:57;;;;;;;4.63;1.40;;;;;;;;;;5009342;28;20835;-41
2022/08/27 01:18:24;;;;;;;5.20;1.40;;;;;;;;;;5029538;28;20041;-44
2022/08/27 01:20:55;;;;;;;6.80;1.55;;;;;;;;;;5030939;28;20034;-44
2022/08/27 01:23:26;;;;;;;6.05;1.40;;;;;;;;;;5037505;28;20056;-43
2022/08/27 01:25:55;;;;;;;5.20;1.52;;;;;;;;;;5032749;28;20098;-45
2022/08/27 01:28:21;;;;;;;5.30;1.60;;;;;;;;;;5038724;28;20044;-44
2022/08/27 01:30:48;;;;;;;4.50;1.20;;;;;;;;;;5031666;28;20041;-45
2022/08/27 01:33:17;;;;;;;4.50;1.45;;;;;;;;;;5038143;28;20227;-48
2022/08/27 01:35:45;;;;;;;4.93;1.65;;;;;;;;;;5021218;28;20044;-47
2022/08/27 01:38:11;;;;;;;5.15;1.58;;;;;;;;;;5038517;28;20037;-44
2022/08/27 01:40:38;;;;;;;4.80;1.70;;;;;;;;;;5016986;28;20041;-43
2022/08/27 01:43:06;;;;;;;5.70;1.40;;;;;;;;;;5036806;28;20115;-42
2022/08/27 01:45:35;;;;;;;4.47;1.05;;;;;;;;;;5033246;28;20029;-43
2022/08/27 01:48:02;;;;;;;4.47;1.13;;;;;;;;;;5020000;28;20040;-42
2022/08/27 01:50:30;;;;;;;4.40;1.55;;;;;;;;;;5021950;28;20056;-43
2022/08/27 01:52:57;;;;;;;5.93;1.67;;;;;;;;;;5023443;28;20044;-45
2022/08/27 01:55:26;;;;;;;4.27;1.17;;;;;;;;;;5032614;28;20091;-42
2022/08/27 01:57:53;;;;;;;5.03;1.50;;;;;;;;;;5034015;28;20033;-43
2022/08/27 02:00:22;;;;;;;5.00;1.67;;;;;;;;;;5029296;28;20072;-44
2022/08/27 02:02:49;;;;;;;7.05;1.70;;;;;;;;;;5019699;28;20099;-43
2022/08/27 02:05:16;;;;;;;4.93;1.63;;;;;;;;;;5031424;28;20036;-43
2022/08/27 02:07:42;;;;;;;5.97;1.53;;;;;;;;;;5025190;28;20049;-43
2022/08/27 02:10:10;;;;;;;5.40;1.67;;;;;;;;;;5027672;28;20120;-42
2022/08/27 02:12:37;;;;;;;5.20;1.90;;;;;;;;;;5029540;28;20053;-44
2022/08/27 02:15:04;;;;;;;7.07;1.95;;;;;;;;;;5033093;28;20558;-43
2022/08/27 02:17:33;;;;;;;6.45;1.98;;;;;;;;;;5029568;28;20462;-44
2022/08/27 02:19:59;;;;;;;7.13;2.30;;;;;;;;;;5027415;28;20044;-44
2022/08/27 02:22:26;;;;;;;5.65;1.65;;;;;;;;;;5018868;28;20049;-43
2022/08/27 02:24:52;;;;;;;6.55;1.88;;;;;;;;;;5025877;28;20191;-46
2022/08/27 02:27:19;;;;;;;6.32;2.10;;;;;;;;;;5018925;28;20267;-44
2022/08/27 02:29:46;;;;;;;6.88;2.00;;;;;;;;;;5033569;28;20040;-43
2022/08/27 02:32:13;;;;;;;6.53;2.00;;;;;;;;;;5033912;28;20041;-44
2022/08/27 02:34:41;;;;;;;7.70;2.25;;;;;;;;;;5014855;28;20299;-44
2022/08/27 02:37:07;;;;;;;5.10;1.83;;;;;;;;;;5033951;28;20122;-45
2022/08/27 02:39:34;;;;;;;5.82;1.80;;;;;;;;;;5027647;28;20461;-46
2022/08/27 02:42:00;;;;;;;5.53;2.10;;;;;;;;;;5032192;28;20045;-42
2022/08/27 02:44:27;;;;;;;6.47;2.10;;;;;;;;;;5015055;28;20668;-43
2022/08/27 02:46:53;;;;;;;6.30;2.05;;;;;;;;;;5032387;28;20300;-43
2022/08/27 02:49:20;;;;;;;5.72;1.58;;;;;;;;;;5033652;28;20036;-43
2022/08/27 02:51:48;;;;;;;6.00;1.70;;;;;;;;;;5004768;28;20033;-44
2022/08/27 02:54:14;;;;;;;5.10;1.70;;;;;;;;;;5032110;28;20034;-43
2022/08/27 02:56:41;;;;;;;5.50;1.83;;;;;;;;;;5032517;28;20048;-44
2022/08/27 02:59:07;;;;;;;5.88;2.17;;;;;;;;;;5034402;28;20029;-42
2022/08/27 03:01:35;;;;;;;5.85;2.00;;;;;;;;;;5034104;28;20114;-42
2022/08/27 03:04:01;;;;;;;5.03;1.60;;;;;;;;;;5009261;28;20041;-43
2022/08/27 03:06:30;;;;;;;7.80;2.38;;;;;;;;;;5018395;28;20061;-46
2022/08/27 03:08:58;;;;;;;6.37;2.10;;;;;;;;;;5033389;28;20033;-45
2022/08/27 03:11:25;;;;;;;6.30;1.88;;;;;;;;;;5035466;28;20659;-43
2022/08/27 03:13:52;;;;;;;5.68;2.45;;;;;;;;;;5005614;28;20049;-43
2022/08/27 03:16:20;;;;;;;6.47;2.20;;;;;;;;;;4995757;28;20418;-44
2022/08/27 03:18:45;;;;;;;5.90;2.00;;;;;;;;;;4986518;28;20034;-44
2022/08/27 03:21:16;;;;;;;7.03;2.00;;;;;;;;;;4994370;28;20048;-43
2022/08/27 03:23:42;;;;;;;6.00;2.28;;;;;;;;;;4998815;28;20608;-43
2022/08/27 03:26:11;;;;;;;6.65;2.63;;;;;;;;;;5009862;28;20044;-43
2022/08/27 03:28:37;;;;;;;9.70;2.93;;;;;;;;;;5007364;28;20180;-43
2022/08/27 03:31:06;;;;;;;7.38;2.85;;;;;;;;;;4998690;28;20034;-42
2022/08/27 03:33:33;;;;;;;8.43;3.03;;;;;;;;;;5010416;28;20041;-43
2022/08/27 03:36:00;;;;;;;8.82;2.90;;;;;;;;;;5001736;28;20380;-47
2022/08/27 03:38:26;;;;;;;8.85;2.83;;;;;;;;;;5017073;28;20153;-43
2022/08/27 03:40:53;;;;;;;7.93;2.73;;;;;;;;;;4992042;28;20483;-44
2022/08/27 03:43:22;;;;;;;9.20;2.80;;;;;;;;;;5015291;28;20037;-46
2022/08/27 03:45:49;;;;;;;7.13;2.55;;;;;;;;;;5016167;28;20113;-43
2022/08/27 03:48:17;;;;;;;8.55;2.88;;;;;;;;;;4999811;28;20042;-42
2022/08/27 03:50:45;;;;;;;7.15;2.50;;;;;;;;;;5017489;28;20044;-43
2022/08/27 03:53:12;;;;;;;6.80;2.70;;;;;;;;;;5016464;28;20136;-43
2022/08/27 03:55:41;;;;;;;7.03;2.45;;;;;;;;;;5008193;28;20046;-46
2022/08/27 03:58:07;;;;;;;7.68;2.80;;;;;;;;;;5007512;28;20103;-43
2022/08/27 04:00:35;;;;;;;7.55;2.55;;;;;;;;;;5018113;28;20407;-44
2022/08/27 04:03:04;;;;;;;8.27;2.78;;;;;;;;;;5002189;28;20057;-43
2022/08/27 04:05:30;;;;;;;7.33;2.47;;;;;;;;;;5016562;28;20155;-45
2022/08/27 04:07:57;;;;;;;6.88;2.50;;;;;;;;;;4996776;28;20685;-45
2022/08/27 04:10:23;;;;;;;7.85;2.88;;;;;;;;;;5006327;28;20100;-43
2022/08/27 04:12:50;;;;;;;7.32;2.70;;;;;;;;;;5016426;28;20061;-45
2022/08/27 04:15:16;;;;;;;6.75;2.45;;;;;;;;;;5018032;28;20041;-42
2022/08/27 04:17:44;;;;;;;6.77;2.50;;;;;;;;;;5036268;28;20045;-45
2022/08/27 04:20:11;;;;;;;6.78;2.10;;;;;;;;;;5028822;28;20474;-44
2022/08/27 04:22:38;;;;;;;6.82;2.03;;;;;;;;;;5032398;28;20037;-43
2022/08/27 04:25:04;;;;;;;6.38;1.90;;;;;;;;;;5028244;28;20046;-44
2022/08/27 04:27:31;;;;;;;6.88;2.25;;;;;;;;;;5013624;28;20526;-44
2022/08/27 04:29:58;;;;;;;5.30;1.87;;;;;;;;;;5033054;28;20438;-43
2022/08/27 04:32:25;;;;;;;6.10;2.00;;;;;;;;;;5023264;28;20087;-45
2022/08/27 04:34:55;;;;;;;6.80;1.92;;;;;;;;;;5016788;28;20644;-44
2022/08/27 04:37:21;;;;;;;6.43;2.20;;;;;;;;;;5009903;28;20542;-43
2022/08/27 04:39:48;;;;;;;7.20;2.00;;;;;;;;;;5037710;28;20040;-44
2022/08/27 04:42:17;;;;;;;6.30;2.40;;;;;;;;;;5021669;28;20041;-43
2022/08/27 04:44:43;;;;;;;6.68;2.42;;;;;;;;;;5026624;28;20050;-43
2022/08/27 04:47:10;;;;;;;6.05;1.95;;;;;;;;;;5028733;28;20108;-42
2022/08/27 04:49:36;;;;;;;7.15;2.00;;;;;;;;;;5036357;28;20037;-46
2022/08/27 04:52:05;;;;;;;6.85;2.17;;;;;;;;;;5033896;28;20492;-45
2022/08/27 04:54:32;;;;;;;8.93;2.27;;;;;;;;;;5029110;28;20369;-44
2022/08/27 04:56:58;;;;;;;6.57;1.80;;;;;;;;;;5024608;28;20457;-43
2022/08/27 04:59:25;;;;;;;5.78;1.98;;;;;;;;;;5039738;28;20045;-46
2022/08/27 05:01:51;;;;;;;6.28;2.10;;;;;;;;;;5022961;28;20501;-42
2022/08/27 05:04:18;;;;;;;5.55;1.95;;;;;;;;;;5031456;28;20092;-44
2022/08/27 05:06:45;;;;;;;6.37;1.90;;;;;;;;;;5024451;28;20094;-43
2022/08/27 05:09:13;;;;;;;6.05;2.08;;;;;;;;;;5012087;28;20047;-45
2022/08/27 05:11:40;;;;;;;5.75;2.05;;;;;;;;;;5034764;28;20041;-46
2022/08/27 05:14:08;;;;;;;7.68;2.00;;;;;;;;;;5028396;28;20053;-43
2022/08/27 05:16:35;;;;;;;6.40;1.98;;;;;;;;;;5034011;28;20049;-44
2022/08/27 05:19:02;;;;;;;6.03;2.27;;;;;;;;;;5027068;28;20112;-44
2022/08/27 05:21:30;;;;;;;6.57;2.10;;;;;;;;;;5007592;28;21377;-42
2022/08/27 05:23:58;;;;;;;5.82;1.70;;;;;;;;;;5030671;28;20380;-43
2022/08/27 05:26:25;;;;;;;5.35;1.83;;;;;;;;;;5023443;28;20038;-43
2022/08/27 05:28:52;;;;;;;6.45;1.90;;;;;;;;;;5030813;28;20045;-47
2022/08/27 05:31:19;;;;;;;6.93;1.60;;;;;;;;;;5020706;28;20033;-43
2022/08/27 05:33:46;;;;;;;6.57;2.00;;;;;;;;;;5029771;28;20487;-42
2022/08/27 05:36:17;;;;;;;7.55;1.92;;;;;;;;;;5030546;28;20569;-45
2022/08/27 05:38:43;;;;;;;5.45;1.40;;;;;;;;;;5033778;28;20120;-43
2022/08/27 05:41:11;;;;;;;5.93;1.58;;;;;;;;;;5021543;28;20028;-44
2022/08/27 05:43:40;;;;;;;5.07;1.60;;;;;;;;;;5016842;28;20098;-45
2022/08/27 05:46:07;;;;;;;4.28;1.30;;;;;;;;;;5024027;28;20038;-46
2022/08/27 05:48:34;;;;;;;5.78;1.38;;;;;;;;;;5019152;28;20037;-44
2022/08/27 05:51:07;;;;;;;5.80;1.40;;;;;;;;;;5013828;28;20048;-46
2022/08/27 05:53:33;;;;;;;7.57;1.65;;;;;;;;;;5030102;28;20057;-46
2022/08/27 05:56:00;;;;;;;4.60;1.30;;;;;;;;;;5021962;28;20032;-44
2022/08/27 06:01:12;;;;;;;5.35;2.00;;;;;;;;;;5018481;28;20495;-44
2022/08/27 06:03:39;;;;;;;5.35;1.70;;;;;;;;;;5038251;28;20380;-46
2022/08/27 06:06:08;;;;;;;7.53;1.92;;;;;;;;;;5000572;28;20044;-45
2022/08/27 06:08:34;;;;;;;6.83;2.17;;;;;;;;;;5028411;28;20053;-44
2022/08/27 06:11:01;;;;;;;6.10;1.88;;;;;;;;;;5026263;28;20037;-46
2022/08/27 06:13:28;;;;;;;6.28;2.20;;;;;;;;;;5020614;28;20050;-45
2022/08/27 06:16:00;;;;;;;6.82;2.50;;;;;;;;;;5012559;28;20444;-46
2022/08/27 06:18:28;;;;;;;11.10;2.67;;;;;;;;;;5026945;28;20034;-45
2022/08/27 06:20:55;;;;;;;7.37;2.30;;;;;;;;;;5018911;28;20279;-43
2022/08/27 06:23:21;;;;;;;6.85;2.55;;;;;;;;;;5029876;28;20045;-45
2022/08/27 06:25:48;;;;;;;7.72;2.70;;;;;;;;;;5028321;28;20487;-47
2022/08/27 06:28:14;;;;;;;10.68;3.42;;;;;;;;;;5038173;28;20109;-44
2022/08/27 06:30:41;;;;;;;8.60;3.75;;;;;;;;;;5003292;28;20033;-45
2022/08/27 06:33:07;;;;;;;9.77;4.17;;;;;;;;;;5028745;28;20045;-45
2022/08/27 06:35:35;;;;;;;10.52;3.83;;;;;;;;;;5025386;28;20075;-43
2022/08/27 06:38:02;;;;;;;9.07;3.40;;;;;;;;;;5028545;28;20470;-43
2022/08/27 06:40:28;;;;;;;11.00;4.38;;;;;;;;;;5030638;28;20037;-43
2022/08/27 06:42:55;;;;;;;9.82;4.70;;;;;;;;;;5033164;28;20361;-47
2022/08/27 06:45:21;;;;;;;12.03;4.43;;;;;;;;;;5033713;28;20529;-43
2022/08/27 06:47:48;;;;;;;16.95;4.63;;;;;;;;;;5021690;28;20029;-43
2022/08/27 06:50:15;;;;;;;10.27;4.00;;;;;;;;;;5017109;28;20104;-46
2022/08/27 06:52:42;;;;;;;12.32;4.10;;;;;;;;;;5021458;28;20094;-43
2022/08/27 06:55:10;;;;;;;10.57;4.43;;;;;;;;;;5008860;28;20491;-43
2022/08/27 06:57:36;;;;;;;10.87;3.83;;;;;;;;;;5030818;28;20138;-44
2022/08/27 07:00:04;;;;;;;9.65;4.40;;;;;;;;;;5009184;28;20087;-43
2022/08/27 07:02:31;;;;;;;12.27;4.90;;;;;;;;;;5036404;28;20128;-46
2022/08/27 07:04:57;;;;;;;9.40;4.68;;;;;;;;;;5030412;28;20116;-47
2022/08/27 07:07:23;;;;;;;12.55;5.28;;;;;;;;;;5020367;28;20571;-45
2022/08/27 07:09:51;;;;;;;11.23;4.17;;;;;;;;;;5017532;28;20042;-43
2022/08/27 07:12:18;;;;;;;14.02;5.20;;;;;;;;;;5032341;28;20087;-46
2022/08/27 07:14:45;;;;;;;14.82;5.13;;;;;;;;;;5003711;28;20103;-45
2022/08/27 07:17:12;;;;;;;10.63;4.20;;;;;;;;;;5011376;28;20037;-43
2022/08/27 07:19:38;;;;;;;15.70;5.60;;;;;;;;;;5019458;28;20125;-43
2022/08/27 07:22:05;;;;;;;12.47;5.00;;;;;;;;;;5022455;28;20089;-44
2022/08/27 07:24:32;;;;;;;11.98;4.82;;;;;;;;;;5024086;28;20037;-45
2022/08/27 07:27:00;;;;;;;12.77;5.40;;;;;;;;;;5020839;28;20033;-43
2022/08/27 07:29:26;;;;;;;15.82;6.10;;;;;;;;;;5029586;28;20041;-42
2022/08/27 07:31:53;;;;;;;13.68;5.57;;;;;;;;;;5028350;28;20464;-48
2022/08/27 07:34:19;;;;;;;13.23;5.63;;;;;;;;;;5018248;28;20045;-44
2022/08/27 07:36:46;;;;;;;12.90;6.13;;;;;;;;;;5016321;28;20053;-44
2022/08/27 07:39:15;;;;;;;16.67;6.63;;;;;;;;;;5003039;28;20115;-45
2022/08/27 07:44:27;;;;;;;12.00;5.90;;;;;;;;;;5027507;28;20054;-46
2022/08/27 07:46:54;;;;;;;15.90;5.97;;;;;;;;;;5023679;28;20566;-45
2022/08/27 07:49:21;;;;;;;15.60;6.32;;;;;;;;;;5032727;28;20037;-43
2022/08/27 07:51:48;;;;;;;14.57;6.10;;;;;;;;;;5034789;28;20554;-43
2022/08/27 07:54:15;;;;;;;12.20;5.85;;;;;;;;;;5010782;28;20068;-46
2022/08/27 07:56:41;;;;;;;13.25;5.88;;;;;;;;;;5022103;28;20549;-46
2022/08/27 07:59:08;;;;;;;13.27;6.00;;;;;;;;;;5020608;28;20037;-43
2022/08/27 08:01:36;;;;;;;13.63;5.38;;;;;;;;;;5035916;28;20037;-43
2022/08/27 08:04:02;;;;;;;12.60;5.63;;;;;;;;;;5029446;28;20092;-47
2022/08/27 08:06:29;;;;;;;12.68;6.25;;;;;;;;;;5027982;28;20520;-47
2022/08/27 08:08:55;;;;;;;12.07;4.95;;;;;;;;;;5023057;28;20091;-45
2022/08/27 08:11:22;;;;;;;12.67;6.33;;;;;;;;;;5031581;28;20033;-45
2022/08/27 08:13:49;;;;;;;13.20;6.43;;;;;;;;;;5018652;28;20136;-45
2022/08/27 08:16:16;;;;;;;12.30;5.97;;;;;;;;;;5028365;28;20461;-45
2022/08/27 08:18:44;;;;;;;12.98;6.20;;;;;;;;;;5032400;28;20041;-50
2022/08/27 08:21:11;;;;;;;12.75;6.55;;;;;;;;;;5017593;28;20048;-44
2022/08/27 08:23:38;;;;;;;12.30;5.80;;;;;;;;;;5033394;28;20111;-44
2022/08/27 08:26:05;;;;;;;13.70;6.80;;;;;;;;;;5031256;28;20548;-50
2022/08/27 08:28:32;;;;;;;13.82;7.00;;;;;;;;;;5027956;28;20040;-43
2022/08/27 08:30:59;;;;;;;15.43;6.38;;;;;;;;;;5029585;28;20041;-44
2022/08/27 08:33:26;;;;;;;13.52;7.03;;;;;;;;;;5031845;28;20040;-44
2022/08/27 08:35:54;;;;;;;12.10;6.47;;;;;;;;;;5036152;28;20049;-43
2022/08/27 08:38:20;;;;;;;13.80;6.93;;;;;;;;;;5002404;28;20051;-43
2022/08/27 08:40:49;;;;;;;14.00;6.88;;;;;;;;;;5033105;28;20044;-43
2022/08/27 08:43:23;;;;;;;14.48;6.88;;;;;;;;;;5029086;28;20041;-42
2022/08/27 08:45:50;;;;;;;14.02;6.75;;;;;;;;;;5014617;28;20098;-45
2022/08/27 08:48:19;;;;;;;15.67;7.07;;;;;;;;;;5034746;28;20037;-43
2022/08/27 08:50:51;;;;;;;13.30;6.68;;;;;;;;;;5008351;28;20033;-44
2022/08/27 08:53:20;;;;;;;13.55;7.18;;;;;;;;;;5036111;28;20185;-45
2022/08/27 08:55:48;;;;;;;17.00;7.85;;;;;;;;;;5035373;28;20037;-45
2022/08/27 08:58:18;;;;;;;14.00;6.43;;;;;;;;;;5034731;28;20047;-46
2022/08/27 09:00:46;;;;;;;15.53;6.80;;;;;;;;;;5015107;28;20558;-45
2022/08/27 09:03:13;;;;;;;16.52;7.38;;;;;;;;;;5036720;28;20037;-46
2022/08/27 09:05:42;;;;;;;14.23;7.18;;;;;;;;;;5037895;28;20106;-43
2022/08/27 09:08:15;;;;;;;15.27;7.50;;;;;;;;;;5030041;28;20032;-46
2022/08/27 09:10:47;;;;;;;14.10;7.43;;;;;;;;;;5039837;28;20586;-43
2022/08/27 09:13:18;;;;;;;14.67;7.43;;;;;;;;;;5016467;28;20063;-47
2022/08/27 09:15:45;;;;;;;14.35;7.18;;;;;;;;;;5036123;28;20469;-45
2022/08/27 09:18:13;;;;;;;15.85;7.10;;;;;;;;;;5036156;28;20033;-45
2022/08/27 09:20:40;;;;;;;13.57;6.75;;;;;;;;;;5023925;28;20494;-45
2022/08/27 09:23:11;;;;;;;14.50;6.72;;;;;;;;;;5025892;28;20029;-47
2022/08/27 09:25:39;;;;;;;13.57;6.73;;;;;;;;;;5030042;28;20052;-46
2022/08/27 09:29:14;;;;;;;15.25;7.20;;;;;;;;;;5013249;28;20036;-43
2022/08/27 09:30:59;;;;;;;13.82;7.30;;;;;;;;;;5034683;28;20179;-47
2022/08/27 09:33:26;;;;;;;15.05;7.18;;;;;;;;;;5022380;28;20095;-47
2022/08/27 09:35:52;;;;;;;16.90;6.97;;;;;;;;;;5027749;28;20044;-47
2022/08/27 09:38:24;;;;;;;14.77;7.30;;;;;;;;;;5018153;28;20056;-46
2022/08/27 09:40:51;;;;;;;16.10;6.78;;;;;;;;;;5012298;28;20040;-45
2022/08/27 09:43:22;;;;;;;14.48;7.80;;;;;;;;;;5032439;28;20044;-44
2022/08/27 09:45:50;;;;;;;12.55;6.45;;;;;;;;;;5035267;28;20037;-48
2022/08/27 09:48:19;;;;;;;14.30;7.78;;;;;;;;;;5027166;28;20046;-43
2022/08/27 09:50:46;;;;;;;14.37;6.50;;;;;;;;;;5010664;28;20153;-45
2022/08/27 09:53:18;;;;;;;14.77;6.80;;;;;;;;;;5037243;28;20041;-44
2022/08/27 09:55:47;;;;;;;10.75;5.63;;;;;;;;;;5029956;28;20492;-45
2022/08/27 09:58:17;;;;;;;10.02;4.75;;;;;;;;;;5019861;28;20044;-46
2022/08/27 10:00:46;;;;;;;12.10;5.78;;;;;;;;;;5034216;28;20048;-45
2022/08/27 10:03:13;;;;;;;13.27;6.30;;;;;;;;;;5031323;28;20052;-46
2022/08/27 10:05:43;;;;;;;10.07;5.32;;;;;;;;;;5028424;28;20132;-44
2022/08/27 10:08:16;;;;;;;12.40;5.85;;;;;;;;;;5012795;28;20037;-45
2022/08/27 10:10:47;;;;;;;10.68;5.78;;;;;;;;;;5021745;28;20129;-45
2022/08/27 10:13:17;;;;;;;11.20;5.78;;;;;;;;;;5020682;28;20049;-45
2022/08/27 10:15:50;;;;;;;8.77;4.73;;;;;;;;;;5016992;28;20147;-45
2022/08/27 10:18:20;;;;;;;9.05;5.00;;;;;;;;;;5023504;28;20041;-44
2022/08/27 10:20:51;;;;;;;12.48;5.20;;;;;;;;;;5028985;28;20095;-44
2022/08/27 10:23:22;;;;;;;10.63;4.38;;;;;;;;;;5034924;28;20040;-44
2022/08/27 10:25:57;;;;;;;9.52;4.63;;;;;;;;;;5007237;28;20110;-43
2022/08/27 10:28:30;;;;;;;9.57;3.93;;;;;;;;;;5027380;28;20056;-45
2022/08/27 10:31:13;;;;;;;8.68;3.70;;;;;;;;;;5031258;28;20550;-43
2022/08/27 10:33:46;;;;;;;9.38;4.40;;;;;;;;;;5017034;28;20041;-46
2022/08/27 10:36:18;;;;;;;8.48;4.00;;;;;;;;;;5014131;28;20394;-43
2022/08/27 10:38:48;;;;;;;10.55;4.35;;;;;;;;;;5030572;28;20408;-44
2022/08/27 10:41:17;;;;;;;9.33;4.27;;;;;;;;;;5031831;28;20506;-44
2022/08/27 10:44:05;;;;;;;8.40;4.00;;;;;;;;;;5032324;28;20041;-44
2022/08/27 10:46:40;;;;;;;9.95;3.92;;;;;;;;;;5019761;28;20056;-44
2022/08/27 10:49:10;;;;;;;9.60;4.00;;;;;;;;;;5031384;28;20095;-44
2022/08/27 10:51:40;;;;;;;8.00;3.55;;;;;;;;;;5035701;28;20056;-48
2022/08/27 10:54:11;;;;;;;8.00;3.90;;;;;;;;;;5032753;28;20121;-46
2022/08/27 10:56:39;;;;;;;7.50;3.08;;;;;;;;;;5011048;28;20400;-44
2022/08/27 10:59:13;;;;;;;6.95;3.08;;;;;;;;;;5032406;28;20034;-45
2022/08/27 11:01:46;;;;;;;7.43;3.20;;;;;;;;;;5025287;28;20104;-45
2022/08/27 11:04:15;;;;;;;6.88;2.85;;;;;;;;;;5032489;28;20040;-49
2022/08/27 11:06:43;;;;;;;7.23;3.37;;;;;;;;;;5022740;28;20073;-47
2022/08/27 11:09:13;;;;;;;8.77;3.67;;;;;;;;;;5012215;28;20485;-43
2022/08/27 11:11:43;;;;;;;8.75;3.42;;;;;;;;;;5025013;28;20042;-44
2022/08/27 11:14:28;;;;;;;7.55;3.08;;;;;;;;;;5029433;28;20572;-45
2022/08/27 11:16:58;;;;;;;9.95;3.40;;;;;;;;;;5023507;28;20037;-44
2022/08/27 11:19:27;;;;;;;4.87;1.83;;;;;;;;;;5033946;28;20043;-44
2022/08/27 11:22:01;;;;;;;8.23;2.60;;;;;;;;;;5032503;28;20049;-44
2022/08/27 11:24:30;;;;;;;7.00;2.20;;;;;;;;;;5019979;28;20506;-48
2022/08/27 11:26:59;;;;;;;5.80;2.00;;;;;;;;;;5034411;28;20041;-50
2022/08/27 11:29:28;;;;;;;7.43;2.78;;;;;;;;;;5036112;28;20045;-46
2022/08/27 11:32:00;;;;;;;6.47;2.43;;;;;;;;;;5027623;28;20045;-43
2022/08/27 11:34:30;;;;;;;7.28;2.30;;;;;;;;;;5009746;28;20099;-44
2022/08/27 11:37:06;;;;;;;6.38;2.10;;;;;;;;;;5033888;28;20518;-44
2022/08/27 11:39:47;;;;;;;6.10;1.88;;;;;;;;;;5032793;28;20037;-47
2022/08/27 11:42:17;;;;;;;6.40;2.28;;;;;;;;;;4991110;28;20061;-44
2022/08/27 11:44:45;;;;;;;7.50;2.10;;;;;;;;;;5037881;28;20096;-43
2022/08/27 11:47:18;;;;;;;11.35;2.47;;;;;;;;;;5014518;28;20523;-44
2022/08/27 11:49:46;;;;;;;6.88;2.40;;;;;;;;;;5030483;28;20032;-44
2022/08/27 11:52:19;;;;;;;4.38;2.00;;;;;;;;;;5028293;28;20188;-46
2022/08/27 11:54:47;;;;;;;4.55;1.50;;;;;;;;;;5025781;28;20063;-44
2022/08/27 11:57:15;;;;;;;6.40;2.10;;;;;;;;;;5029983;28;21292;-44
2022/08/27 11:59:42;;;;;;;5.07;1.95;;;;;;;;;;5015447;28;20056;-44
2022/08/27 12:02:21;;;;;;;7.00;2.22;;;;;;;;;;5021321;28;20045;-42
2022/08/27 12:04:47;;;;;;;6.25;1.90;;;;;;;;;;5031195;28;20029;-46
2022/08/27 12:07:28;;;;;;;7.00;2.20;;;;;;;;;;5032810;28;20056;-44
2022/08/27 12:10:03;;;;;;;5.10;1.87;;;;;;;;;;5032998;28;20039;-43
2022/08/27 12:12:33;;;;;;;5.22;1.60;;;;;;;;;;5013151;28;20531;-46
2022/08/27 12:15:03;;;;;;;7.10;2.03;;;;;;;;;;4984504;28;20077;-45
2022/08/27 12:17:41;;;;;;;6.72;1.50;;;;;;;;;;5007355;28;20045;-44
2022/08/27 12:20:13;;;;;;;7.03;1.70;;;;;;;;;;5011531;28;20052;-44
2022/08/27 12:25:31;;;;;;;5.70;1.33;;;;;;;;;;5008970;28;20045;-45
2022/08/27 12:27:58;;;;;;;6.40;1.73;;;;;;;;;;5008387;28;20042;-46
2022/08/27 12:30:29;;;;;;;4.30;1.13;;;;;;;;;;5003882;28;20492;-44
2022/08/27 12:32:57;;;;;;;4.22;1.10;;;;;;;;;;5016405;28;20037;-44
2022/08/27 12:35:29;;;;;;;5.00;1.70;;;;;;;;;;5015518;28;20115;-44
2022/08/27 12:37:56;;;;;;;7.95;2.03;;;;;;;;;;5007015;28;20050;-44
2022/08/27 12:40:24;;;;;;;5.75;1.67;;;;;;;;;;4994242;28;20041;-43
2022/08/27 12:42:51;;;;;;;8.27;2.20;;;;;;;;;;4992976;28;20478;-42
2022/08/27 12:45:19;;;;;;;6.30;1.60;;;;;;;;;;5011637;28;20038;-48
2022/08/27 12:47:46;;;;;;;4.73;1.70;;;;;;;;;;5005635;28;20038;-42
2022/08/27 12:50:14;;;;;;;4.60;1.70;;;;;;;;;;4989176;28;20048;-42
2022/08/27 12:52:49;;;;;;;4.28;1.25;;;;;;;;;;5010971;28;20069;-43
2022/08/27 12:55:22;;;;;;;4.07;1.40;;;;;;;;;;5004920;28;20072;-45
2022/08/27 12:57:52;;;;;;;4.60;1.42;;;;;;;;;;5006633;28;20034;-46
2022/08/27 13:00:19;;;;;;;6.43;1.40;;;;;;;;;;5010540;28;20038;-42
2022/08/27 13:02:56;;;;;;;4.55;1.40;;;;;;;;;;5008912;28;20052;-43
2022/08/27 13:05:24;;;;;;;4.75;1.38;;;;;;;;;;5012849;28;20488;-45
2022/08/27 13:07:51;;;;;;;4.15;1.30;;;;;;;;;;5005578;28;20548;-42
2022/08/27 13:10:19;;;;;;;4.05;1.15;;;;;;;;;;5013257;28;20325;-44
2022/08/27 13:12:46;;;;;;;4.77;1.43;;;;;;;;;;5009957;28;20040;-45
2022/08/27 13:15:14;;;;;;;3.28;1.00;;;;;;;;;;4990605;28;20193;-44
2022/08/27 13:17:42;;;;;;;4.88;1.17;;;;;;;;;;4983897;28;20124;-44
2022/08/27 13:20:13;;;;;;;7.18;1.63;;;;;;;;;;5018068;28;20037;-43
2022/08/27 13:22:42;;;;;;;5.50;1.10;;;;;;;;;;5004522;28;20040;-43
2022/08/27 13:25:19;;;;;;;6.40;1.30;;;;;;;;;;5014820;28;20481;-44
2022/08/27 13:27:51;;;;;;;4.20;1.40;;;;;;;;;;5016947;28;20056;-45
2022/08/27 13:30:18;;;;;;;4.78;1.48;;;;;;;;;;5014389;28;20507;-44
2022/08/27 13:32:45;;;;;;;4.22;1.25;;;;;;;;;;5015863;28;20496;-43
2022/08/27 13:35:12;;;;;;;4.55;1.45;;;;;;;;;;5012004;28;20076;-43
2022/08/27 13:37:43;;;;;;;6.73;1.50;;;;;;;;;;4990943;28;20527;-44
2022/08/27 13:40:10;;;;;;;4.28;1.40;;;;;;;;;;5009209;28;20284;-44
2022/08/27 13:42:39;;;;;;;3.00;0.82;;;;;;;;;;4985839;28;20476;-45
2022/08/27 13:45:06;;;;;;;3.97;1.15;;;;;;;;;;5018952;28;20048;-44
2022/08/27 13:47:39;;;;;;;3.55;0.90;;;;;;;;;;5007554;28;20052;-44
2022/08/27 13:50:07;;;;;;;4.10;0.80;;;;;;;;;;5017495;28;20108;-44
2022/08/27 13:52:35;;;;;;;5.00;1.67;;;;;;;;;;5000222;28;20029;-44
2022/08/27 13:55:05;;;;;;;4.32;1.38;;;;;;;;;;4998006;28;20049;-43
2022/08/27 13:57:41;;;;;;;4.35;1.30;;;;;;;;;;5008420;28;20448;-44
2022/08/27 14:00:09;;;;;;;3.50;0.95;;;;;;;;;;5012390;28;20034;-45
2022/08/27 14:02:35;;;;;;;4.87;1.77;;;;;;;;;;5017574;28;20080;-42
2022/08/27 14:05:08;;;;;;;4.03;1.63;;;;;;;;;;5013517;28;20326;-50
2022/08/27 14:07:36;;;;;;;4.78;1.45;;;;;;;;;;5013693;28;20503;-44
2022/08/27 14:10:05;;;;;;;5.13;1.65;;;;;;;;;;5002861;28;20448;-46
2022/08/27 14:12:34;;;;;;;5.07;1.52;;;;;;;;;;4983118;28;20041;-42
2022/08/27 14:15:11;;;;;;;3.47;0.90;;;;;;;;;;5024708;28;20521;-43
2022/08/27 14:17:38;;;;;;;4.05;1.50;;;;;;;;;;5031246;28;21584;-47
2022/08/27 14:20:06;;;;;;;3.92;1.20;;;;;;;;;;5013899;28;20041;-43
2022/08/27 14:22:33;;;;;;;5.03;1.55;;;;;;;;;;5018280;28;20090;-42
2022/08/27 14:24:59;;;;;;;6.43;1.40;;;;;;;;;;5036980;28;20503;-42
2022/08/27 14:27:28;;;;;;;3.97;1.20;;;;;;;;;;5012205;28;20061;-43
2022/08/27 14:29:55;;;;;;;4.43;1.63;;;;;;;;;;5033348;28;20041;-47
2022/08/27 14:32:22;;;;;;;3.88;1.00;;;;;;;;;;5030066;28;20053;-46
2022/08/27 14:34:48;;;;;;;4.25;1.27;;;;;;;;;;5026606;28;20538;-44
2022/08/27 14:37:15;;;;;;;6.90;1.25;;;;;;;;;;5030258;28;20044;-43
2022/08/27 14:39:42;;;;;;;5.80;1.70;;;;;;;;;;5027539;28;20114;-43
2022/08/27 14:42:09;;;;;;;9.25;1.80;;;;;;;;;;5029026;28;20124;-43
2022/08/27 14:44:37;;;;;;;4.82;1.60;;;;;;;;;;5028992;28;20052;-43
2022/08/27 14:47:05;;;;;;;4.07;1.60;;;;;;;;;;5022343;28;20483;-43
2022/08/27 14:49:34;;;;;;;4.15;1.30;;;;;;;;;;5028802;28;20490;-44
2022/08/27 14:52:01;;;;;;;6.37;1.70;;;;;;;;;;5022370;28;20073;-47
2022/08/27 14:54:28;;;;;;;4.03;1.70;;;;;;;;;;5021467;28;20053;-44
2022/08/27 14:56:56;;;;;;;6.10;1.40;;;;;;;;;;5013120;28;20045;-52